Time;durP1;ratioP1;P1;durP2;ratioP2;P2;SDS_P1;SDS_P2;PMS_P1;PMS_P2;Temp;Humidity;BMP_temperature;BMP_pressure;BME280_temperature;BME280_humidity;BME280_pressure;Samples;Min_cycle;Max_cycle;Signal;HPM_P1;HPM_P2
2022/12/17 13:07:29;;;;;;;11.98;9.35;;;;;;;4.07;75.14;101814.81;5013418;28;20411;-68
2022/12/17 13:09:57;;;;;;;16.88;9.98;;;;;;;4.11;74.67;101807.41;5019542;23;20030;-72
2022/12/17 13:12:44;;;;;;;16.33;9.70;;;;;;;4.16;74.79;101813.94;4991376;28;20394;-64
2022/12/17 13:15:35;;;;;;;11.23;8.82;;;;;;;4.24;74.53;101816.75;4989332;28;20546;-73
2022/12/17 13:18:33;;;;;;;11.85;9.18;;;;;;;4.15;74.29;101824.69;4982042;28;20487;-73
2022/12/17 13:21:25;;;;;;;12.05;8.75;;;;;;;4.28;73.26;101817.31;4973164;28;20105;-73
2022/12/17 13:23:52;;;;;;;12.65;8.77;;;;;;;4.21;73.37;101821.50;4991509;28;20041;-71
2022/12/17 13:26:49;;;;;;;8.98;7.53;;;;;;;4.40;72.55;101816.19;4992539;28;20030;-71
2022/12/17 13:29:32;;;;;;;10.23;8.05;;;;;;;4.33;72.21;101808.91;4992201;28;20034;-71
2022/12/17 13:32:13;;;;;;;9.43;7.50;;;;;;;4.35;71.72;101815.78;4990585;28;20450;-71
2022/12/17 13:35:00;;;;;;;9.20;6.63;;;;;;;4.39;71.28;101814.50;4991157;28;20042;-69
2022/12/17 13:37:45;;;;;;;7.43;6.60;;;;;;;4.36;70.77;101814.78;4975348;28;20035;-73
2022/12/17 13:40:14;;;;;;;9.05;6.75;;;;;;;4.34;70.83;101818.56;4972867;28;20056;-72
2022/12/17 13:42:45;;;;;;;7.78;5.97;;;;;;;4.36;70.59;101824.56;4990843;28;20076;-73
2022/12/17 13:45:16;;;;;;;8.57;6.38;;;;;;;4.44;69.64;101820.22;4987372;28;20078;-72
2022/12/17 13:47:42;;;;;;;9.57;7.15;;;;;;;4.45;69.61;101826.38;4989470;28;20468;-73
2022/12/17 13:50:27;;;;;;;6.97;6.28;;;;;;;4.67;68.22;101830.50;4992179;28;20026;-70
2022/12/17 13:52:53;;;;;;;9.77;6.32;;;;;;;4.70;68.24;101824.91;4972267;28;20045;-70
2022/12/17 13:55:25;;;;;;;8.77;6.53;;;;;;;4.68;68.13;101832.19;4972793;28;20045;-74
2022/12/17 13:57:52;;;;;;;10.20;6.38;;;;;;;4.79;67.32;101829.34;4976640;28;20026;-74
2022/12/17 14:00:30;;;;;;;10.88;7.30;;;;;;;4.70;67.93;101827.56;4972488;28;20040;-66
2022/12/17 14:02:56;;;;;;;9.80;6.18;;;;;;;4.67;67.60;101835.81;4976226;28;20480;-75
2022/12/17 14:05:32;;;;;;;8.50;5.90;;;;;;;4.71;67.08;101831.88;4977399;28;20030;-71
2022/12/17 14:08:01;;;;;;;8.43;5.47;;;;;;;4.56;67.51;101828.84;4975964;28;20078;-63
2022/12/17 14:10:28;;;;;;;9.85;5.45;;;;;;;4.63;67.10;101829.13;4975593;28;20391;-73
2022/12/17 14:13:21;;;;;;;7.75;5.30;;;;;;;4.61;66.88;101833.72;4975644;28;20503;-69
2022/12/17 14:15:51;;;;;;;7.95;5.15;;;;;;;4.58;66.88;101829.53;4972532;28;20047;-74
2022/12/17 14:18:20;;;;;;;7.70;5.00;;;;;;;4.46;67.40;101834.16;4976349;28;20450;-72
2022/12/17 14:20:55;;;;;;;7.32;5.28;;;;;;;4.54;65.97;101836.09;4976386;28;20059;-72
2022/12/17 14:23:32;;;;;;;9.57;5.80;;;;;;;4.43;66.30;101834.44;4975903;28;20041;-74
2022/12/17 14:25:59;;;;;;;8.25;5.68;;;;;;;4.42;66.47;101846.03;4981902;28;20093;-74
2022/12/17 14:28:34;;;;;;;6.57;5.03;;;;;;;4.56;65.73;101844.78;4977545;28;20105;-74
2022/12/17 14:31:07;;;;;;;6.85;4.70;;;;;;;4.60;65.51;101840.00;4991198;28;20118;-74
2022/12/17 14:33:36;;;;;;;6.70;4.28;;;;;;;4.55;65.19;101855.50;4975662;28;20027;-73
2022/12/17 14:36:07;;;;;;;6.75;4.15;;;;;;;4.65;64.58;101849.19;4980809;28;20027;-71
2022/12/17 14:38:34;;;;;;;6.10;4.45;;;;;;;4.49;64.95;101852.44;4977772;28;20066;-71
2022/12/17 14:42:24;;;;;;;5.72;4.22;;;;;;;4.63;64.59;101855.63;4976099;28;20106;-74
2022/12/17 14:44:02;;;;;;;5.50;4.35;;;;;;;4.75;63.65;101857.97;4975760;28;20432;-68
2022/12/17 14:46:30;;;;;;;5.60;4.45;;;;;;;4.55;64.50;101874.06;4974719;28;20094;-69
2022/12/17 14:49:05;;;;;;;5.35;4.57;;;;;;;4.45;65.00;101863.47;4975577;28;20391;-69
2022/12/17 14:51:40;;;;;;;6.07;3.80;;;;;;;4.62;64.46;101873.38;4975152;28;20019;-70
2022/12/17 14:54:28;;;;;;;8.85;4.25;;;;;;;4.66;64.39;101861.47;4975224;28;20031;-68
2022/12/17 14:56:57;;;;;;;5.68;3.90;;;;;;;4.55;63.72;101866.09;4975218;28;20038;-68
2022/12/17 14:59:37;;;;;;;5.35;3.47;;;;;;;4.33;64.43;101864.56;4975358;28;20503;-71
2022/12/17 15:02:26;;;;;;;5.55;4.38;;;;;;;4.63;63.78;101853.81;4974798;28;20038;-70
2022/12/17 15:04:57;;;;;;;5.43;3.78;;;;;;;4.55;64.02;101866.09;4975412;28;20026;-69
2022/12/17 15:07:28;;;;;;;5.55;3.75;;;;;;;4.28;64.63;101866.84;4980879;28;20106;-69
2022/12/17 15:09:57;;;;;;;4.18;3.65;;;;;;;4.21;65.00;101861.25;4975745;28;20031;-64
2022/12/17 15:12:24;;;;;;;5.80;4.07;;;;;;;4.31;65.00;101856.78;4973863;28;20031;-69
2022/12/17 15:14:50;;;;;;;5.50;3.63;;;;;;;4.42;64.68;101859.28;4986095;28;20080;-69
2022/12/17 15:17:17;;;;;;;4.90;3.55;;;;;;;4.28;64.95;101861.53;4983660;28;20066;-70
2022/12/17 15:19:43;;;;;;;7.28;4.20;;;;;;;4.28;64.72;101857.06;4978846;28;20037;-71
2022/12/17 15:22:16;;;;;;;7.07;4.00;;;;;;;4.16;65.12;101860.81;4974529;28;20026;-67
2022/12/17 15:24:43;;;;;;;5.40;3.75;;;;;;;4.00;65.86;101850.78;4973196;28;20034;-68
2022/12/17 15:27:15;;;;;;;4.88;4.10;;;;;;;4.31;65.08;101855.94;4974110;28;20097;-73
2022/12/17 15:29:42;;;;;;;5.32;3.55;;;;;;;4.09;65.39;101851.75;4963282;28;20424;-73
2022/12/17 15:32:22;;;;;;;6.75;3.58;;;;;;;4.03;65.81;101852.31;4972679;28;20126;-73
2022/12/17 15:34:50;;;;;;;4.80;3.40;;;;;;;4.16;65.67;101856.34;4977814;28;20054;-73
2022/12/17 15:37:17;;;;;;;5.38;3.85;;;;;;;3.98;65.89;101863.31;4985929;28;20037;-73
2022/12/17 15:39:43;;;;;;;5.78;3.30;;;;;;;3.92;66.13;101856.75;4993051;28;20026;-72
2022/12/17 15:44:54;;;;;;;4.88;3.00;;;;;;;4.13;65.35;101854.00;4976670;28;20435;-72
2022/12/17 15:47:20;;;;;;;5.50;3.15;;;;;;;4.07;65.96;101853.72;4974607;28;20105;-73
2022/12/17 15:49:46;;;;;;;5.13;3.85;;;;;;;4.16;65.72;101863.47;4989697;28;20034;-73
2022/12/17 15:52:14;;;;;;;5.90;3.42;;;;;;;4.26;65.33;101866.97;4974996;28;20026;-73
2022/12/17 15:54:41;;;;;;;7.30;3.83;;;;;;;4.03;65.96;101863.75;4974278;28;20054;-73
2022/12/17 15:57:07;;;;;;;5.72;3.67;;;;;;;4.17;65.54;101865.16;4974060;28;20471;-70
2022/12/17 15:59:34;;;;;;;4.20;3.10;;;;;;;4.04;66.10;101862.75;4973794;28;20038;-75
2022/12/17 16:02:00;;;;;;;3.70;3.05;;;;;;;4.07;65.79;101874.91;4970477;28;20033;-66
2022/12/17 16:04:26;;;;;;;6.25;3.65;;;;;;;4.05;66.10;101856.47;4973571;28;20065;-66
2022/12/17 16:06:53;;;;;;;4.78;3.28;;;;;;;4.10;66.26;101864.84;4983911;28;20032;-75
2022/12/17 16:09:23;;;;;;;6.00;3.10;;;;;;;4.24;65.84;101868.91;4974287;28;20027;-73
2022/12/17 16:11:54;;;;;;;4.45;3.33;;;;;;;4.16;66.26;101874.06;4973659;28;20046;-72
2022/12/17 16:14:22;;;;;;;6.05;3.78;;;;;;;4.09;66.67;101870.31;4974019;28;20027;-72
2022/12/17 16:16:49;;;;;;;6.07;4.03;;;;;;;4.36;66.04;101875.75;4978549;28;20117;-72
2022/12/17 16:19:15;;;;;;;4.32;3.58;;;;;;;4.30;66.25;101878.13;4973599;28;20027;-71
2022/12/17 16:21:41;;;;;;;3.38;3.08;;;;;;;4.50;65.96;101885.09;4989732;28;20037;-72
2022/12/17 16:24:09;;;;;;;5.75;3.53;;;;;;;4.42;66.08;101880.50;4977690;28;20039;-72
2022/12/17 16:26:37;;;;;;;4.50;3.05;;;;;;;4.46;66.04;101879.25;4976426;28;20030;-72
2022/12/17 16:29:03;;;;;;;5.05;2.83;;;;;;;4.47;65.68;101883.56;4973428;28;20073;-71
2022/12/17 16:31:30;;;;;;;3.30;2.40;;;;;;;4.90;63.84;101876.94;4974648;28;20018;-71
2022/12/17 16:33:56;;;;;;;4.43;2.63;;;;;;;4.75;64.41;101887.16;4973137;28;20033;-71
2022/12/17 16:36:22;;;;;;;3.67;2.65;;;;;;;4.80;64.67;101877.94;4984802;28;20378;-71
2022/12/17 16:38:51;;;;;;;3.20;2.50;;;;;;;4.73;64.73;101883.81;4991610;28;20123;-72
2022/12/17 16:41:19;;;;;;;4.55;2.10;;;;;;;5.09;63.52;101888.47;4987348;28;20070;-69
2022/12/17 16:43:46;;;;;;;4.20;2.50;;;;;;;5.14;63.39;101896.84;4991555;28;20040;-69
2022/12/17 16:46:25;;;;;;;2.90;1.88;;;;;;;5.37;62.76;101879.56;4973636;28;20058;-71
2022/12/17 16:48:51;;;;;;;4.85;2.50;;;;;;;5.38;63.24;101881.22;4989814;28;20042;-72
2022/12/17 16:51:19;;;;;;;3.00;2.00;;;;;;;5.42;63.96;101885.28;4975438;28;20027;-73
2022/12/17 16:53:46;;;;;;;3.97;1.83;;;;;;;5.49;63.32;101882.84;4973201;28;20105;-73
2022/12/17 16:56:17;;;;;;;2.67;1.80;;;;;;;5.63;62.65;101890.34;4973260;28;20498;-72
2022/12/17 16:58:44;;;;;;;2.83;1.88;;;;;;;5.73;62.75;101892.97;4973279;28;20636;-73
2022/12/17 17:01:11;;;;;;;2.25;1.77;;;;;;;5.97;58.58;101895.91;4973646;28;20422;-72
2022/12/17 17:03:42;;;;;;;1.92;1.50;;;;;;;6.14;58.03;101893.41;4972779;28;20137;-68
2022/12/17 17:06:09;;;;;;;2.30;1.67;;;;;;;6.15;58.12;101895.91;4990936;28;20092;-74
2022/12/17 17:08:37;;;;;;;2.65;1.73;;;;;;;6.38;56.54;101892.81;4982516;28;20027;-74
2022/12/17 17:11:10;;;;;;;3.67;1.73;;;;;;;6.92;54.23;101886.41;4984672;28;20105;-73
2022/12/17 17:13:37;;;;;;;2.00;1.50;;;;;;;7.22;52.29;101892.22;4953543;28;20035;-71
2022/12/17 17:16:04;;;;;;;2.53;1.42;;;;;;;7.42;51.92;101899.00;4962226;28;20030;-71
2022/12/17 17:18:32;;;;;;;3.00;1.23;;;;;;;7.72;47.89;101896.78;4972965;28;20392;-73
2022/12/17 17:21:40;;;;;;;1.67;1.25;;;;;;;7.68;50.21;101899.78;4972992;28;20031;-72
2022/12/17 17:24:08;;;;;;;1.67;1.13;;;;;;;7.83;50.66;101904.50;4953163;28;20188;-74
2022/12/17 17:26:35;;;;;;;1.73;1.33;;;;;;;8.06;49.83;101905.56;4972800;28;20106;-73
2022/12/17 17:29:02;;;;;;;3.00;1.40;;;;;;;8.31;47.46;101909.09;4973039;28;20031;-73
2022/12/17 17:31:28;;;;;;;1.48;1.13;;;;;;;8.65;44.40;101914.31;4972664;28;20507;-73
2022/12/17 17:33:54;;;;;;;1.85;1.02;;;;;;;8.60;45.53;101905.13;4972415;28;20037;-73
2022/12/17 17:36:29;;;;;;;1.30;1.13;;;;;;;8.70;44.90;101905.81;4974408;28;20027;-72
2022/12/17 17:38:58;;;;;;;1.83;1.23;;;;;;;8.78;44.94;101903.16;4977515;28;20138;-72
2022/12/17 17:41:27;;;;;;;2.33;1.25;;;;;;;8.72;43.68;101904.66;4976660;28;20026;-73
2022/12/17 17:43:58;;;;;;;1.70;1.20;;;;;;;8.92;44.45;101906.97;4975581;28;20046;-73
2022/12/17 17:46:25;;;;;;;2.28;1.48;;;;;;;9.02;42.89;101896.94;4977081;28;20030;-72
2022/12/17 17:48:54;;;;;;;2.20;1.35;;;;;;;8.98;43.17;101898.28;4976511;28;20050;-72
2022/12/17 17:51:23;;;;;;;2.25;1.70;;;;;;;9.19;43.43;101898.56;4976659;28;20035;-72
2022/12/17 17:53:51;;;;;;;3.22;1.40;;;;;;;9.48;43.11;101894.47;4979664;28;20053;-69
2022/12/17 17:56:20;;;;;;;1.45;1.00;;;;;;;9.26;42.80;101886.19;4976218;28;20037;-71
2022/12/17 17:58:49;;;;;;;3.33;1.40;;;;;;;9.37;42.87;101893.00;4977518;28;20042;-68
2022/12/17 18:01:21;;;;;;;1.60;1.15;;;;;;;9.60;42.92;101892.25;4976019;28;20471;-68
2022/12/17 18:03:48;;;;;;;1.92;1.35;;;;;;;9.56;42.77;101891.78;5012881;22;20054;-68
2022/12/17 18:06:14;;;;;;;2.40;1.27;;;;;;;9.59;42.92;101886.06;5015163;28;20033;-68
2022/12/17 18:08:42;;;;;;;1.65;1.10;;;;;;;9.67;42.90;101885.22;5014786;28;20026;-68
2022/12/17 18:11:10;;;;;;;1.50;1.00;;;;;;;9.81;42.31;101883.63;5015043;28;20497;-67
2022/12/17 18:13:55;;;;;;;2.05;1.45;;;;;;;10.03;41.65;101883.66;5012904;28;20490;-71
2022/12/17 18:16:35;;;;;;;1.53;1.30;;;;;;;10.11;41.58;101872.09;5005463;28;20026;-64
2022/12/17 18:19:08;;;;;;;2.40;1.10;;;;;;;10.21;42.34;101886.03;5007698;28;20025;-63
2022/12/17 18:21:35;;;;;;;1.73;1.40;;;;;;;10.40;40.99;101892.81;5005182;28;20029;-64
2022/12/17 18:24:11;;;;;;;2.63;1.52;;;;;;;10.52;40.89;101882.50;5011455;28;20045;-63
2022/12/17 18:26:41;;;;;;;2.85;1.38;;;;;;;10.57;41.64;101878.28;5014830;28;20504;-62
2022/12/17 18:29:13;;;;;;;2.78;1.42;;;;;;;10.42;40.51;101880.06;5014484;28;20041;-65
2022/12/17 18:31:40;;;;;;;1.88;1.35;;;;;;;10.39;40.98;101879.63;5014584;28;20421;-62
2022/12/17 18:34:07;;;;;;;2.13;1.30;;;;;;;10.55;41.10;101876.81;5014609;28;20030;-67
2022/12/17 18:36:39;;;;;;;1.52;1.23;;;;;;;10.71;40.60;101876.63;5010006;28;20530;-61
2022/12/17 18:39:08;;;;;;;2.15;1.35;;;;;;;10.79;40.78;101879.25;5007819;28;20464;-64
2022/12/17 18:44:20;;;;;;;2.60;1.50;;;;;;;10.90;40.12;101869.94;5014673;28;20048;-63
2022/12/17 18:46:46;;;;;;;2.47;1.20;;;;;;;10.84;40.26;101870.69;5014382;28;20034;-62
2022/12/17 18:49:14;;;;;;;2.42;1.60;;;;;;;10.81;40.47;101874.53;5012811;28;20100;-62
2022/12/17 18:51:43;;;;;;;1.45;1.08;;;;;;;10.84;40.36;101868.81;5014143;28;20130;-68
2022/12/17 18:54:18;;;;;;;2.03;1.50;;;;;;;10.87;40.64;101872.13;5013381;28;20026;-63
2022/12/17 18:56:45;;;;;;;3.58;1.30;;;;;;;10.88;40.85;101863.09;5014263;28;20483;-69
2022/12/17 18:59:17;;;;;;;2.88;1.67;;;;;;;11.06;39.87;101859.06;5013923;28;20889;-66
2022/12/17 19:01:44;;;;;;;2.45;1.48;;;;;;;11.02;39.40;101859.59;5013458;28;20374;-63
2022/12/17 19:04:14;;;;;;;3.40;1.80;;;;;;;10.74;40.20;101849.50;5013379;28;20044;-64
2022/12/17 19:06:42;;;;;;;2.05;1.33;;;;;;;10.98;39.91;101840.38;5013406;28;20032;-64
2022/12/17 19:09:16;;;;;;;1.70;1.30;;;;;;;10.90;39.39;101840.47;5013843;28;20123;-60
2022/12/17 19:11:43;;;;;;;2.30;1.37;;;;;;;10.82;40.06;101838.69;5012641;28;20434;-61
2022/12/17 19:14:09;;;;;;;2.72;1.52;;;;;;;10.99;39.35;101836.72;5026837;28;20482;-66
2022/12/17 19:16:35;;;;;;;2.00;1.23;;;;;;;11.06;40.00;101834.13;5026201;28;20034;-72
2022/12/17 19:19:03;;;;;;;1.73;1.27;;;;;;;11.12;39.65;101833.38;5013561;28;20721;-70
2022/12/17 19:21:32;;;;;;;2.38;1.52;;;;;;;11.10;39.52;101830.03;5013115;28;20028;-63
2022/12/17 19:24:01;;;;;;;3.05;1.70;;;;;;;11.25;39.60;101824.66;5013414;28;20145;-63
2022/12/17 19:26:28;;;;;;;2.08;1.40;;;;;;;11.31;39.46;101803.31;5011506;28;20036;-63
2022/12/17 19:28:56;;;;;;;1.90;1.50;;;;;;;11.47;39.63;101804.94;5013157;28;20156;-61
2022/12/17 19:31:24;;;;;;;2.10;1.67;;;;;;;11.35;40.02;101809.13;5013070;28;20129;-61
2022/12/17 19:34:02;;;;;;;2.58;1.30;;;;;;;11.48;39.85;101797.72;5012464;28;20387;-63
2022/12/17 19:36:31;;;;;;;2.33;1.50;;;;;;;11.37;39.76;101789.16;5013332;28;20537;-61
2022/12/17 19:38:59;;;;;;;6.00;1.83;;;;;;;11.27;39.37;101785.97;4994877;28;20507;-63
2022/12/17 19:41:27;;;;;;;3.00;1.77;;;;;;;11.26;40.51;101789.63;5012872;28;20022;-62
2022/12/17 19:44:02;;;;;;;2.40;1.60;;;;;;;11.15;40.68;101790.09;5012409;28;20033;-61
2022/12/17 19:46:31;;;;;;;2.20;1.63;;;;;;;11.28;40.08;101779.56;5012649;28;20363;-61
2022/12/17 19:48:57;;;;;;;2.58;1.80;;;;;;;11.47;39.69;101777.31;5012954;28;20105;-61
2022/12/17 19:51:26;;;;;;;2.88;1.75;;;;;;;11.36;40.53;101770.59;5012895;28;20037;-61
2022/12/17 19:53:54;;;;;;;2.28;1.80;;;;;;;11.57;40.60;101775.16;5012415;28;20026;-58
2022/12/17 19:56:21;;;;;;;2.97;1.70;;;;;;;11.59;40.57;101773.09;5011778;28;20037;-64
2022/12/17 19:58:51;;;;;;;2.53;1.90;;;;;;;11.67;40.44;101764.13;5012267;28;20026;-64
2022/12/17 20:01:20;;;;;;;3.30;1.75;;;;;;;11.68;40.52;101761.25;5012760;28;20049;-63
2022/12/17 20:03:49;;;;;;;2.47;2.03;;;;;;;11.56;41.05;101752.06;4998040;28;20465;-65
2022/12/17 20:06:17;;;;;;;3.50;2.22;;;;;;;11.61;40.97;101749.63;5011243;28;20034;-65
2022/12/17 20:08:43;;;;;;;2.88;1.95;;;;;;;11.69;40.80;101740.63;5011755;28;20421;-63
2022/12/17 20:13:58;;;;;;;3.30;1.92;;;;;;;11.85;40.09;101727.81;5019010;28;20064;-63
2022/12/17 20:16:24;;;;;;;4.55;2.83;;;;;;;11.84;41.01;101725.34;4994493;28;20036;-63
2022/12/17 20:18:51;;;;;;;2.22;2.00;;;;;;;11.95;41.21;101721.31;5012184;28;20029;-63
2022/12/17 20:21:18;;;;;;;2.80;2.33;;;;;;;12.19;40.55;101720.88;4998094;28;20030;-60
2022/12/17 20:23:48;;;;;;;4.20;2.80;;;;;;;11.97;40.84;101716.56;5009044;28;20040;-59
2022/12/17 20:26:15;;;;;;;3.80;2.45;;;;;;;12.10;40.75;101709.47;5011264;28;20334;-61
2022/12/17 20:28:41;;;;;;;2.75;2.28;;;;;;;11.91;41.47;101709.28;5011814;28;20597;-59
2022/12/17 20:31:08;;;;;;;6.40;2.50;;;;;;;12.03;41.19;101699.69;5010679;28;20072;-63
2022/12/17 20:33:34;;;;;;;4.25;2.40;;;;;;;12.14;41.62;101699.97;5007564;28;20488;-63
2022/12/17 20:36:13;;;;;;;3.45;2.33;;;;;;;12.34;40.26;101701.97;5011782;28;20509;-62
2022/12/17 20:38:40;;;;;;;3.10;2.10;;;;;;;12.28;40.51;101703.59;5011995;28;20030;-63
2022/12/17 20:41:09;;;;;;;3.38;2.22;;;;;;;12.29;40.41;101682.94;5011972;28;20103;-64
2022/12/17 20:43:36;;;;;;;2.92;2.33;;;;;;;12.31;41.27;101683.56;4994477;28;20030;-65
2022/12/17 20:46:02;;;;;;;3.38;2.55;;;;;;;12.26;41.86;101675.28;5011646;28;20077;-64
2022/12/17 20:48:29;;;;;;;5.72;3.25;;;;;;;12.20;41.60;101678.75;5011500;28;20034;-65
2022/12/17 20:50:55;;;;;;;5.20;2.53;;;;;;;12.24;41.66;101680.84;5011312;28;20034;-64
2022/12/17 20:53:21;;;;;;;3.72;2.38;;;;;;;12.30;41.18;101674.69;5011344;28;20030;-64
2022/12/17 20:55:57;;;;;;;4.20;2.75;;;;;;;12.27;41.24;101668.88;5005968;28;20665;-64
2022/12/17 20:58:23;;;;;;;2.88;2.63;;;;;;;12.34;41.99;101667.91;4996674;28;20026;-64
2022/12/17 21:00:50;;;;;;;5.00;2.85;;;;;;;12.44;40.98;101664.88;4993100;28;20113;-64
2022/12/17 21:03:16;;;;;;;3.67;2.70;;;;;;;12.45;41.41;101654.97;4926717;28;2437432;-64
2022/12/17 21:05:42;;;;;;;3.67;2.60;;;;;;;12.62;41.22;101642.84;5012016;28;20038;-64
2022/12/17 21:08:08;;;;;;;3.97;2.65;;;;;;;12.64;40.58;101647.00;5011679;28;20100;-64
2022/12/17 21:10:35;;;;;;;4.47;2.72;;;;;;;12.82;40.16;101637.53;5010921;28;20023;-64
2022/12/17 21:15:49;;;;;;;3.40;2.45;;;;;;;12.98;39.56;101633.69;4992485;28;20104;-64
2022/12/17 21:18:16;;;;;;;4.05;2.50;;;;;;;12.95;39.71;101625.00;5004403;28;20026;-65
2022/12/17 21:20:42;;;;;;;3.92;2.67;;;;;;;13.14;39.73;101622.56;5011466;28;20331;-64
2022/12/17 21:23:08;;;;;;;3.97;2.47;;;;;;;13.28;39.50;101613.53;5011114;28;20416;-64
2022/12/17 21:25:36;;;;;;;3.75;2.80;;;;;;;13.52;39.37;101608.56;5012050;28;20119;-64
2022/12/17 21:28:02;;;;;;;3.90;2.83;;;;;;;13.63;38.52;101610.63;5011809;28;20111;-64
2022/12/17 21:30:29;;;;;;;4.25;2.35;;;;;;;13.74;38.54;101604.63;5011806;28;20018;-64
2022/12/17 21:32:55;;;;;;;3.78;2.53;;;;;;;13.79;38.68;101609.41;5011324;28;20096;-64
2022/12/17 21:35:21;;;;;;;3.88;2.75;;;;;;;13.94;38.41;101602.75;5007029;28;20117;-66
2022/12/17 21:37:47;;;;;;;3.60;2.70;;;;;;;14.16;38.10;101600.63;5011638;28;20018;-65
2022/12/17 21:40:13;;;;;;;4.15;3.20;;;;;;;14.16;38.14;101595.25;5006502;28;20383;-65
2022/12/17 21:45:24;;;;;;;3.85;2.90;;;;;;;14.23;38.10;101595.22;4992279;28;20242;-65
2022/12/17 21:47:50;;;;;;;4.85;2.80;;;;;;;14.56;37.69;101599.72;4992091;28;20394;-65
2022/12/17 21:50:17;;;;;;;5.72;3.78;;;;;;;14.82;37.23;101587.94;4999500;28;20488;-65
2022/12/17 21:52:43;;;;;;;8.45;4.05;;;;;;;15.18;36.65;101588.16;5011226;28;20041;-65
2022/12/17 21:55:09;;;;;;;5.60;3.75;;;;;;;15.26;36.35;101595.13;5011531;28;20053;-65
2022/12/17 21:57:37;;;;;;;4.22;3.20;;;;;;;15.19;36.67;101588.97;5011646;28;20105;-65
2022/12/17 22:00:04;;;;;;;5.20;3.58;;;;;;;15.53;35.91;101580.41;5011558;28;20054;-65
2022/12/17 22:02:30;;;;;;;5.38;3.13;;;;;;;15.62;36.09;101582.84;5011302;28;20050;-66
2022/12/17 22:04:56;;;;;;;5.28;3.78;;;;;;;15.66;35.57;101579.50;5011235;28;20034;-65
2022/12/17 22:07:22;;;;;;;5.78;4.07;;;;;;;15.95;35.61;101583.38;5011368;28;20399;-65
2022/12/17 22:09:49;;;;;;;7.05;3.85;;;;;;;15.84;35.32;101584.13;5011283;28;20026;-65
2022/12/17 22:14:59;;;;;;;4.78;3.45;;;;;;;15.36;36.47;101583.88;4992172;28;20061;-66
2022/12/17 22:17:26;;;;;;;7.30;3.75;;;;;;;14.81;37.30;101586.31;5007673;28;20038;-65
2022/12/17 22:19:52;;;;;;;6.25;3.88;;;;;;;14.73;37.92;101584.69;5011369;28;20026;-65
2022/12/17 22:22:18;;;;;;;7.00;4.00;;;;;;;15.17;37.74;101580.28;4994276;28;20041;-65
2022/12/17 22:24:44;;;;;;;5.38;4.03;;;;;;;15.54;36.87;101586.63;5015037;28;20018;-66
2022/12/17 22:27:10;;;;;;;5.90;4.00;;;;;;;15.73;37.05;101584.84;5014449;28;20057;-66
2022/12/17 22:35:06;;;;;;;7.30;4.22;;;;;;;15.72;36.54;101577.78;5014566;28;20048;-66
2022/12/17 22:37:32;;;;;;;5.80;4.13;;;;;;;15.05;38.27;101572.91;5014727;28;20025;-66
2022/12/17 22:39:58;;;;;;;7.20;4.82;;;;;;;14.67;39.31;101575.59;5014307;28;20030;-65
2022/12/17 22:45:10;;;;;;;7.43;4.50;;;;;;;14.18;40.70;101576.19;5014542;28;20068;-65
2022/12/17 22:47:36;;;;;;;6.63;4.50;;;;;;;13.90;41.51;101584.53;5014184;28;20668;-65
2022/12/17 22:50:02;;;;;;;7.22;4.50;;;;;;;13.59;42.40;101579.81;5013986;28;20116;-65
2022/12/17 22:52:28;;;;;;;6.30;3.92;;;;;;;13.32;42.35;101574.41;5013866;28;20068;-65
2022/12/17 22:54:55;;;;;;;7.53;4.35;;;;;;;13.10;43.44;101589.03;5014329;28;20126;-65
2022/12/17 22:57:21;;;;;;;8.05;5.28;;;;;;;13.14;43.63;101579.53;5014220;28;20064;-65
2022/12/17 22:59:47;;;;;;;6.22;4.25;;;;;;;13.31;43.61;101580.00;5014222;28;20112;-65
2022/12/17 23:02:13;;;;;;;7.28;5.38;;;;;;;12.87;44.38;101568.75;5013938;28;20029;-65
2022/12/17 23:04:40;;;;;;;6.30;5.00;;;;;;;12.77;44.72;101579.06;5014338;28;20462;-65
2022/12/17 23:07:06;;;;;;;6.53;4.80;;;;;;;12.90;44.59;101571.03;5013937;28;20034;-65
2022/12/17 23:09:32;;;;;;;6.70;4.55;;;;;;;12.79;45.34;101571.63;5014190;28;20489;-66
2022/12/17 23:12:49;;;;;;;7.43;4.50;;;;;;;13.09;45.13;101568.56;5013886;28;20041;-66
2022/12/17 23:14:44;;;;;;;5.70;4.53;;;;;;;13.01;45.03;101560.72;5013877;28;20112;-66
2022/12/17 23:17:11;;;;;;;7.13;4.30;;;;;;;12.80;45.48;101564.41;5013989;28;20481;-66
2022/12/17 23:19:37;;;;;;;10.38;5.72;;;;;;;12.80;45.56;101559.84;5013753;28;20041;-66
2022/12/17 23:22:03;;;;;;;6.68;5.30;;;;;;;12.90;45.44;101560.28;5013187;28;20113;-66
2022/12/17 23:24:29;;;;;;;8.90;5.40;;;;;;;12.83;46.08;101559.44;5013279;28;20069;-66
2022/12/17 23:26:56;;;;;;;11.85;6.18;;;;;;;12.64;46.01;101552.97;5013894;28;20026;-66
2022/12/17 23:29:22;;;;;;;8.90;5.78;;;;;;;12.72;46.04;101549.31;4995905;28;20232;-66
2022/12/17 23:31:48;;;;;;;9.50;6.43;;;;;;;12.56;46.20;101561.22;5013004;28;20049;-66
2022/12/17 23:34:14;;;;;;;9.13;6.07;;;;;;;12.28;47.21;101560.50;5012624;28;20381;-66
2022/12/17 23:36:41;;;;;;;8.38;6.25;;;;;;;12.27;47.21;101554.31;5013706;28;20056;-66
2022/12/17 23:39:07;;;;;;;8.65;5.93;;;;;;;12.20;47.68;101556.13;5014121;28;20454;-66
2022/12/17 23:41:33;;;;;;;7.32;5.65;;;;;;;12.24;47.72;101549.31;5013329;28;20410;-66
2022/12/17 23:44:00;;;;;;;8.98;6.35;;;;;;;12.38;47.89;101537.63;5014449;28;20482;-65
2022/12/17 23:46:28;;;;;;;10.48;5.95;;;;;;;12.40;48.16;101540.94;5013756;28;20433;-65
2022/12/17 23:48:54;;;;;;;8.10;6.57;;;;;;;12.44;47.64;101538.69;5012845;28;20065;-65
2022/12/17 23:51:22;;;;;;;10.82;6.82;;;;;;;12.40;47.95;101540.94;5012982;28;20388;-65
2022/12/17 23:53:49;;;;;;;9.63;6.88;;;;;;;12.47;47.74;101532.88;5012874;28;20034;-66
2022/12/17 23:56:18;;;;;;;9.70;6.32;;;;;;;12.22;48.36;101537.16;5013217;28;20057;-66
2022/12/17 23:58:45;;;;;;;10.43;7.28;;;;;;;12.30;48.19;101536.97;5013019;28;20478;-66
